Terminal Aerodrome Forecast
Issued by NWS Sioux Falls, SD

Home | Current Version | Previous Version | Text Only | Print | Product List | Glossary On
Versions: 1 2 3 4 5 6 7 8 9 10 11 12 13 14 15
000
FTUS43 KFSD 240926 AAA
TAFFSD
TAF AMD
KFSD 240926Z 2409/2506 01021G33KT 6SM BLSN BKN015
     FM241400 36019G31KT 6SM BLSN OVC080
     FM241800 35019G31KT P6SM BKN150
     FM250200 34014G20KT P6SM SCT250=

USA.gov is the U.S. government's official web portal to all federal, state and local government web resources and services.